createdAt,value
2022-10-31T00:02:12.865Z,79.63
2022-10-31T00:04:40.050Z,66.35
2022-10-31T00:07:13.597Z,93.78
2022-10-31T00:09:47.622Z,88.82
2022-10-31T00:12:21.539Z,99.55
2022-10-31T00:14:55.627Z,96.07
2022-10-31T00:17:35.508Z,108.65
2022-10-31T00:20:12.749Z,100.10
2022-10-31T00:22:39.839Z,114.23
2022-10-31T00:25:07.093Z,119.97
2022-10-31T00:27:40.788Z,126.47
2022-10-31T00:30:08.377Z,146.15
2022-10-31T00:32:42.045Z,130.80
2022-10-31T00:35:09.264Z,124.47
2022-10-31T00:37:36.374Z,159.35
2022-10-31T00:40:09.636Z,162.35
2022-10-31T00:42:36.710Z,138.05
2022-10-31T00:45:10.898Z,187.75
2022-10-31T00:47:38.171Z,153.18
2022-10-31T00:50:06.148Z,151.68
2022-10-31T00:52:39.666Z,171.48
2022-10-31T00:55:06.938Z,148.95
2022-10-31T00:57:40.796Z,130.45
2022-10-31T01:00:08.268Z,164.90
2022-10-31T01:02:35.900Z,168.57
2022-10-31T01:05:09.620Z,137.73
2022-10-31T01:07:41.082Z,168.10
2022-10-31T01:10:15.789Z,177.63
2022-10-31T01:12:46.609Z,232.40
2022-10-31T01:15:28.668Z,202.38
2022-10-31T01:18:02.735Z,198.88
2022-10-31T01:20:36.651Z,198.93
2022-10-31T01:23:03.868Z,224.70
2022-10-31T01:25:31.153Z,151.02
2022-10-31T01:28:04.850Z,155.30
2022-10-31T01:30:31.947Z,137.95
2022-10-31T01:32:59.609Z,155.05
2022-10-31T01:35:33.725Z,175.35
2022-10-31T01:38:00.932Z,159.40
2022-10-31T01:40:37.768Z,155.73
2022-10-31T01:43:04.929Z,155.18
2022-10-31T01:45:32.085Z,131.85
2022-10-31T01:48:05.612Z,141.05
2022-10-31T01:50:34.425Z,150.00
2022-10-31T01:53:08.653Z,145.75
2022-10-31T01:55:37.242Z,155.95
2022-10-31T01:58:15.746Z,160.88
2022-10-31T02:00:44.941Z,146.77
2022-10-31T02:03:12.399Z,132.05
2022-10-31T02:05:46.716Z,151.63
2022-10-31T02:08:31.176Z,144.32
2022-10-31T02:11:05.750Z,146.13
2022-10-31T02:13:32.895Z,111.65
2022-10-31T02:16:06.679Z,153.20
2022-10-31T02:18:40.814Z,121.13
2022-10-31T02:21:17.814Z,109.70
2022-10-31T02:24:02.411Z,121.25
2022-10-31T02:26:54.710Z,113.75
2022-10-31T02:29:27.661Z,122.55
2022-10-31T02:32:06.797Z,107.45
2022-10-31T02:34:44.458Z,119.55
2022-10-31T02:37:44.681Z,116.50
2022-10-31T02:40:18.011Z,120.60
2022-10-31T02:42:54.872Z,119.07
2022-10-31T02:45:31.086Z,125.50
2022-10-31T02:48:06.820Z,97.15
2022-10-31T02:50:35.951Z,101.43
2022-10-31T02:53:03.726Z,97.07
2022-10-31T02:55:37.664Z,109.78
2022-10-31T02:58:05.050Z,99.95
2022-10-31T03:03:11.695Z,95.90
2022-10-31T03:06:08.671Z,85.20
2022-10-31T03:08:52.195Z,103.22
2022-10-31T03:11:26.768Z,104.05
2022-10-31T03:13:58.364Z,96.90
2022-10-31T03:16:48.743Z,99.85
2022-10-31T03:19:27.652Z,91.28
2022-10-31T03:22:06.796Z,88.53
2022-10-31T03:24:37.416Z,92.05
2022-10-31T03:27:05.069Z,89.97
2022-10-31T03:29:41.714Z,95.00
2022-10-31T03:32:11.431Z,81.03
2022-10-31T03:34:46.886Z,86.88
2022-10-31T03:37:16.723Z,93.07
2022-10-31T03:39:51.780Z,143.23
2022-10-31T03:42:29.666Z,106.57
2022-10-31T03:45:08.685Z,117.35
2022-10-31T03:47:37.352Z,130.60
2022-10-31T03:50:11.877Z,96.57
2022-10-31T03:52:45.571Z,95.07
2022-10-31T03:55:25.779Z,135.82
2022-10-31T03:58:03.200Z,103.57
2022-10-31T04:00:32.081Z,94.53
2022-10-31T04:03:08.606Z,125.63
2022-10-31T04:05:44.584Z,138.93
2022-10-31T04:08:20.627Z,108.43
2022-10-31T04:10:49.693Z,148.43
2022-10-31T04:15:59.677Z,134.35
2022-10-31T04:18:40.818Z,122.55
2022-10-31T04:21:15.838Z,141.63
2022-10-31T04:23:43.111Z,169.45
2022-10-31T04:26:12.466Z,114.20
2022-10-31T04:28:46.711Z,120.82
2022-10-31T04:31:14.174Z,141.63
2022-10-31T04:33:54.964Z,163.25
2022-10-31T04:36:22.116Z,162.90
2022-10-31T04:38:49.284Z,143.00
2022-10-31T04:41:22.731Z,158.98
2022-10-31T04:43:49.923Z,202.02
2022-10-31T04:46:17.167Z,186.02
2022-10-31T04:48:50.713Z,161.48
2022-10-31T04:51:17.885Z,146.73
2022-10-31T04:53:51.806Z,154.48
2022-10-31T04:56:18.939Z,120.22
2022-10-31T04:58:46.037Z,140.57
2022-10-31T05:01:20.935Z,145.95
2022-10-31T05:03:48.283Z,163.43
2022-10-31T05:06:23.706Z,158.80
2022-10-31T05:08:50.952Z,194.90
2022-10-31T05:11:18.086Z,183.02
2022-10-31T05:13:51.815Z,175.88
2022-10-31T05:16:39.613Z,176.43
2022-10-31T05:19:13.914Z,123.65
2022-10-31T05:21:41.181Z,145.57
2022-10-31T05:24:08.530Z,191.27
2022-10-31T05:26:41.851Z,118.68
2022-10-31T05:29:09.072Z,160.05
2022-10-31T05:31:36.159Z,126.32
2022-10-31T05:34:09.692Z,119.13
2022-10-31T05:36:36.910Z,143.23
2022-10-31T05:39:10.850Z,124.85
2022-10-31T05:41:38.034Z,113.25
2022-10-31T05:44:05.225Z,98.72
2022-10-31T05:46:38.834Z,99.47
2022-10-31T05:49:06.077Z,103.00
2022-10-31T05:51:33.222Z,94.95
2022-10-31T05:54:08.824Z,102.32
2022-10-31T05:56:37.980Z,84.22
2022-10-31T05:59:05.102Z,96.80
2022-10-31T06:01:38.990Z,99.25
2022-10-31T06:04:06.326Z,97.78
2022-10-31T06:06:33.410Z,85.03
2022-10-31T06:09:06.733Z,89.05
2022-10-31T06:11:33.996Z,97.43
2022-10-31T06:14:07.852Z,74.32
2022-10-31T06:16:54.654Z,80.57
2022-10-31T06:19:28.865Z,74.70
2022-10-31T06:21:56.110Z,84.22
2022-10-31T06:24:23.184Z,85.82
2022-10-31T06:26:56.739Z,76.53
2022-10-31T06:29:24.030Z,93.25
2022-10-31T06:31:59.886Z,89.40
2022-10-31T06:34:27.191Z,83.60
2022-10-31T06:36:54.291Z,84.07
2022-10-31T06:39:27.720Z,94.10
2022-10-31T06:41:54.907Z,80.80
2022-10-31T06:44:28.790Z,77.13
2022-10-31T06:46:56.213Z,92.97
2022-10-31T06:49:23.335Z,78.00
2022-10-31T06:51:57.766Z,90.25
2022-10-31T06:54:24.988Z,87.88
2022-10-31T06:56:58.769Z,101.90
2022-10-31T06:59:26.008Z,92.38
2022-10-31T07:01:59.880Z,101.45
2022-10-31T07:04:27.287Z,109.57
2022-10-31T07:07:00.980Z,100.10
2022-10-31T07:09:28.165Z,84.03
2022-10-31T07:11:55.326Z,102.72
2022-10-31T07:14:28.797Z,94.63
2022-10-31T07:17:15.668Z,84.40
2022-10-31T07:19:49.827Z,75.88
2022-10-31T07:22:17.007Z,75.75
2022-10-31T07:24:50.910Z,73.53
2022-10-31T07:27:18.179Z,87.95
2022-10-31T07:29:45.295Z,66.03
2022-10-31T07:32:18.856Z,70.20
2022-10-31T07:34:47.556Z,74.30
2022-10-31T07:37:21.895Z,67.72
2022-10-31T07:39:49.049Z,62.47
2022-10-31T07:42:16.127Z,65.10
2022-10-31T07:44:51.516Z,49.88
2022-10-31T07:47:22.354Z,61.00
2022-10-31T07:49:55.784Z,44.03
2022-10-31T07:52:22.894Z,42.53
2022-10-31T07:54:56.906Z,44.67
2022-10-31T07:57:25.140Z,47.10
2022-10-31T07:59:52.569Z,39.88
2022-10-31T08:02:27.024Z,43.38
2022-10-31T08:04:57.171Z,41.08
2022-10-31T08:07:33.975Z,34.17
2022-10-31T08:10:01.223Z,36.22
2022-10-31T08:12:28.317Z,41.80
2022-10-31T08:15:01.800Z,35.22
2022-10-31T08:17:38.955Z,37.65
2022-10-31T08:20:12.910Z,40.10
2022-10-31T08:22:43.686Z,42.72
2022-10-31T08:25:11.052Z,39.00
2022-10-31T08:27:44.878Z,32.67
2022-10-31T08:30:12.328Z,38.30
2022-10-31T08:32:39.482Z,33.92
2022-10-31T08:35:12.896Z,40.28
2022-10-31T08:37:39.996Z,41.42
2022-10-31T08:40:07.722Z,42.20
2022-10-31T08:42:41.915Z,39.58
2022-10-31T08:45:09.174Z,37.80
2022-10-31T08:47:42.938Z,34.28
2022-10-31T08:50:10.141Z,34.45
2022-10-31T08:53:03.047Z,23.42
2022-10-31T08:55:30.927Z,26.98
2022-10-31T08:57:59.301Z,19.90
2022-10-31T09:00:34.100Z,28.52
2022-10-31T09:03:05.794Z,21.40
2022-10-31T09:05:33.461Z,25.25
2022-10-31T09:08:11.679Z,18.63
2022-10-31T09:10:42.181Z,22.83
2022-10-31T09:13:18.844Z,22.13
2022-10-31T09:15:46.900Z,20.17
2022-10-31T09:18:27.878Z,25.92
2022-10-31T09:21:08.708Z,22.67
2022-10-31T09:23:42.937Z,24.42
2022-10-31T09:26:10.091Z,22.80
2022-10-31T09:28:37.448Z,17.38
2022-10-31T09:31:10.820Z,20.45
2022-10-31T09:33:38.301Z,16.35
2022-10-31T09:36:05.463Z,25.40
2022-10-31T09:38:38.825Z,23.30
2022-10-31T09:41:15.595Z,18.67
2022-10-31T09:43:51.910Z,21.73
2022-10-31T09:46:31.846Z,26.25
2022-10-31T09:49:32.925Z,20.23
2022-10-31T09:55:19.812Z,17.58
2022-10-31T09:57:47.288Z,15.82
2022-10-31T10:00:26.873Z,22.88
2022-10-31T10:03:03.370Z,23.33
2022-10-31T10:05:49.899Z,24.48
2022-10-31T10:08:25.414Z,17.50
2022-10-31T10:11:01.865Z,18.80
2022-10-31T10:13:38.286Z,23.90
2022-10-31T16:57:06.988Z,33.88
2022-10-31T16:59:34.684Z,40.83
2022-10-31T17:02:03.271Z,31.25
2022-10-31T17:07:09.167Z,32.97
2022-10-31T17:09:43.174Z,32.75
2022-10-31T17:12:16.128Z,32.30
2022-10-31T17:14:50.138Z,39.83
2022-10-31T17:17:17.332Z,39.13
2022-10-31T17:19:44.417Z,36.25
2022-10-31T17:22:21.988Z,35.13
2022-10-31T17:24:49.303Z,38.95
2022-10-31T17:27:16.420Z,35.22
2022-10-31T17:29:50.185Z,36.63
2022-10-31T17:32:18.199Z,40.05
2022-10-31T17:34:45.382Z,39.50
2022-10-31T17:37:18.959Z,37.35
2022-10-31T17:39:46.209Z,51.50
2022-10-31T17:42:20.122Z,47.47
2022-10-31T17:44:47.933Z,41.08
2022-10-31T17:47:15.039Z,43.70
2022-10-31T17:49:49.070Z,76.03
2022-10-31T17:52:16.321Z,52.30
2022-10-31T17:54:49.994Z,64.45
2022-10-31T17:57:24.177Z,52.30
2022-10-31T17:59:58.373Z,60.58
2022-10-31T18:02:25.830Z,62.00
2022-10-31T18:07:27.066Z,72.97
2022-10-31T18:09:54.340Z,57.90
2022-10-31T18:12:28.106Z,57.13
2022-10-31T18:15:01.889Z,68.35
2022-10-31T18:17:38.142Z,59.22
2022-10-31T18:20:14.904Z,69.82
2022-10-31T18:22:49.069Z,66.72
2022-10-31T18:25:16.587Z,64.80
2022-10-31T18:30:18.044Z,66.65
2022-10-31T18:32:45.330Z,87.18
2022-10-31T18:35:19.112Z,68.97
2022-10-31T18:37:46.320Z,74.30
2022-10-31T18:40:14.023Z,88.00
2022-10-31T18:42:48.062Z,80.28
2022-10-31T18:45:32.588Z,72.57
2022-10-31T18:48:08.128Z,74.70
2022-10-31T18:50:35.290Z,84.40
2022-10-31T18:53:02.834Z,79.03
2022-10-31T18:55:37.110Z,83.63
2022-10-31T18:58:11.131Z,76.60
2022-10-31T19:00:52.099Z,77.38
2022-10-31T19:03:24.888Z,96.53
2022-10-31T19:06:03.281Z,110.00
2022-10-31T19:08:30.453Z,101.87
2022-10-31T19:11:10.224Z,103.38
2022-10-31T19:13:37.619Z,99.75
2022-10-31T19:16:21.029Z,107.95
2022-10-31T19:18:48.258Z,116.30
2022-10-31T19:21:16.624Z,89.07
2022-10-31T19:23:51.003Z,89.15
2022-10-31T19:26:18.181Z,85.22
2022-10-31T19:28:52.036Z,115.38
2022-10-31T19:31:19.619Z,110.10
2022-10-31T19:36:21.994Z,127.65
2022-10-31T19:38:50.323Z,125.15
2022-10-31T19:41:26.148Z,99.82
2022-10-31T19:43:54.075Z,126.80
2022-10-31T19:46:40.072Z,125.63
2022-10-31T19:49:17.129Z,110.17
2022-10-31T19:51:44.331Z,102.50
2022-10-31T19:54:12.422Z,89.97
2022-10-31T19:56:46.004Z,112.57
2022-10-31T19:59:20.079Z,125.80
2022-10-31T20:01:54.146Z,121.45
2022-10-31T20:04:21.445Z,122.93
2022-10-31T20:06:54.967Z,106.88
2022-10-31T20:09:22.268Z,99.25
2022-10-31T20:11:49.364Z,125.35
2022-10-31T20:14:24.077Z,121.45
2022-10-31T20:16:51.304Z,127.90
2022-10-31T20:19:24.990Z,128.25
2022-10-31T20:21:52.497Z,115.13
2022-10-31T20:24:19.663Z,105.15
2022-10-31T20:26:52.991Z,122.10
2022-10-31T20:29:20.330Z,94.40
2022-10-31T20:31:55.076Z,85.38
2022-10-31T20:34:25.217Z,117.35
2022-10-31T20:36:52.400Z,94.95
2022-10-31T20:39:25.989Z,109.07
2022-10-31T20:41:53.864Z,107.00
2022-10-31T20:44:27.941Z,110.10
2022-10-31T20:46:55.414Z,95.93
2022-10-31T20:49:29.072Z,80.28
2022-10-31T20:51:56.933Z,69.28
2022-10-31T20:54:24.148Z,62.92
2022-10-31T20:56:58.060Z,58.92
2022-10-31T20:59:32.040Z,57.53
2022-10-31T21:02:06.711Z,56.17
2022-10-31T21:04:47.012Z,48.40
2022-10-31T21:07:21.155Z,53.45
2022-10-31T21:09:48.464Z,51.13
2022-10-31T21:12:15.593Z,53.47
2022-10-31T21:14:50.064Z,51.08
2022-10-31T21:17:17.486Z,55.08
2022-10-31T21:19:51.123Z,42.55
2022-10-31T21:22:18.291Z,45.28
2022-10-31T21:24:51.944Z,38.50
2022-10-31T21:27:19.135Z,41.38
2022-10-31T21:29:52.977Z,33.58
2022-10-31T21:32:20.255Z,39.35
2022-10-31T21:34:50.118Z,32.85
2022-10-31T21:37:24.059Z,35.40
2022-10-31T21:39:51.431Z,39.95
2022-10-31T21:42:25.156Z,37.78
2022-10-31T21:44:52.339Z,28.95
2022-10-31T21:47:19.457Z,32.08
2022-10-31T21:49:53.069Z,31.92
2022-10-31T21:52:20.234Z,31.88
2022-10-31T21:54:54.100Z,30.20
2022-10-31T21:57:42.030Z,25.60
2022-10-31T22:00:16.323Z,28.50
2022-10-31T22:02:43.503Z,37.10
2022-10-31T22:05:10.616Z,30.75
2022-10-31T22:07:44.047Z,38.22
2022-10-31T22:10:11.318Z,34.90
2022-10-31T22:12:46.211Z,30.95
2022-10-31T22:15:13.420Z,26.70
2022-10-31T22:17:40.537Z,30.73
2022-10-31T22:20:15.917Z,21.58
2022-10-31T22:22:49.971Z,32.03
2022-10-31T22:25:17.341Z,29.83
2022-10-31T22:27:51.073Z,29.77
2022-10-31T22:30:18.297Z,35.88
2022-10-31T22:32:45.482Z,33.47
2022-10-31T22:35:18.980Z,31.60
2022-10-31T22:37:46.378Z,24.10
2022-10-31T22:40:19.998Z,27.98
2022-10-31T22:42:47.450Z,32.25
2022-10-31T22:45:21.135Z,30.02
2022-10-31T22:47:48.377Z,29.58
2022-10-31T22:50:15.529Z,28.92
2022-10-31T22:52:48.992Z,28.77
2022-10-31T22:55:17.476Z,27.40
2022-10-31T22:57:57.005Z,26.42
2022-10-31T23:00:24.373Z,28.80
2022-10-31T23:02:51.849Z,30.38
2022-10-31T23:05:25.000Z,26.27
2022-10-31T23:07:52.310Z,25.65
2022-10-31T23:10:25.991Z,29.13
2022-10-31T23:13:12.427Z,30.05
2022-10-31T23:15:45.980Z,31.05
2022-10-31T23:18:19.048Z,30.88
2022-10-31T23:21:04.153Z,29.67
2022-10-31T23:23:34.697Z,36.63
2022-10-31T23:26:27.136Z,39.42
2022-10-31T23:28:54.580Z,26.92
2022-10-31T23:31:21.682Z,34.58
2022-10-31T23:33:55.013Z,24.17
2022-10-31T23:36:22.339Z,30.08
2022-10-31T23:38:57.051Z,30.60
2022-10-31T23:41:24.290Z,38.47
2022-10-31T23:43:51.459Z,35.25
2022-10-31T23:46:25.010Z,35.60
2022-10-31T23:48:53.614Z,44.65
2022-10-31T23:51:27.009Z,38.20
2022-10-31T23:53:54.293Z,38.25
2022-10-31T23:56:27.994Z,29.40
2022-10-31T23:59:02.310Z,38.25
